sensor_id;sensor_type;location;lat;lon;timestamp;P1;durP1;ratioP1;P2;durP2;ratioP2
3189;SDS011;1606;51.946;10.558;2022-11-12T00:01:02;8.03;;;3.03;;
3189;SDS011;1606;51.946;10.558;2022-11-12T00:03:29;6.87;;;1.80;;
3189;SDS011;1606;51.946;10.558;2022-11-12T00:05:59;6.00;;;1.80;;
3189;SDS011;1606;51.946;10.558;2022-11-12T00:08:26;7.00;;;2.10;;
3189;SDS011;1606;51.946;10.558;2022-11-12T00:10:55;10.10;;;2.27;;
3189;SDS011;1606;51.946;10.558;2022-11-12T00:13:23;8.87;;;2.10;;
3189;SDS011;1606;51.946;10.558;2022-11-12T00:15:50;7.73;;;2.03;;
3189;SDS011;1606;51.946;10.558;2022-11-12T00:18:18;5.77;;;1.50;;
3189;SDS011;1606;51.946;10.558;2022-11-12T00:20:46;8.10;;;1.77;;
3189;SDS011;1606;51.946;10.558;2022-11-12T00:23:15;7.10;;;1.93;;
3189;SDS011;1606;51.946;10.558;2022-11-12T00:25:43;7.00;;;1.60;;
3189;SDS011;1606;51.946;10.558;2022-11-12T00:28:11;5.80;;;1.50;;
3189;SDS011;1606;51.946;10.558;2022-11-12T00:30:39;7.00;;;1.53;;
3189;SDS011;1606;51.946;10.558;2022-11-12T00:33:07;8.03;;;1.83;;
3189;SDS011;1606;51.946;10.558;2022-11-12T00:35:35;7.20;;;1.73;;
3189;SDS011;1606;51.946;10.558;2022-11-12T00:38:03;5.90;;;1.80;;
3189;SDS011;1606;51.946;10.558;2022-11-12T00:40:32;7.20;;;1.80;;
3189;SDS011;1606;51.946;10.558;2022-11-12T00:43:00;6.60;;;1.87;;
3189;SDS011;1606;51.946;10.558;2022-11-12T00:45:28;7.10;;;1.40;;
3189;SDS011;1606;51.946;10.558;2022-11-12T00:47:55;6.00;;;1.70;;
3189;SDS011;1606;51.946;10.558;2022-11-12T00:50:23;7.23;;;1.67;;
3189;SDS011;1606;51.946;10.558;2022-11-12T00:52:51;5.57;;;1.63;;
3189;SDS011;1606;51.946;10.558;2022-11-12T00:55:19;5.80;;;1.37;;
3189;SDS011;1606;51.946;10.558;2022-11-12T00:57:49;7.83;;;1.77;;
3189;SDS011;1606;51.946;10.558;2022-11-12T01:00:17;9.90;;;2.27;;
3189;SDS011;1606;51.946;10.558;2022-11-12T01:02:45;5.80;;;1.40;;
3189;SDS011;1606;51.946;10.558;2022-11-12T01:05:17;8.23;;;1.50;;
3189;SDS011;1606;51.946;10.558;2022-11-12T01:07:45;9.37;;;1.70;;
3189;SDS011;1606;51.946;10.558;2022-11-12T01:10:20;5.50;;;1.53;;
3189;SDS011;1606;51.946;10.558;2022-11-12T01:12:50;7.57;;;1.47;;
3189;SDS011;1606;51.946;10.558;2022-11-12T01:15:18;6.53;;;1.40;;
3189;SDS011;1606;51.946;10.558;2022-11-12T01:17:45;6.73;;;1.83;;
3189;SDS011;1606;51.946;10.558;2022-11-12T01:20:13;6.10;;;2.00;;
3189;SDS011;1606;51.946;10.558;2022-11-12T01:22:41;6.63;;;1.47;;
3189;SDS011;1606;51.946;10.558;2022-11-12T01:25:09;8.53;;;1.60;;
3189;SDS011;1606;51.946;10.558;2022-11-12T01:27:37;5.60;;;1.73;;
3189;SDS011;1606;51.946;10.558;2022-11-12T01:30:07;6.10;;;1.60;;
3189;SDS011;1606;51.946;10.558;2022-11-12T01:32:35;6.03;;;1.60;;
3189;SDS011;1606;51.946;10.558;2022-11-12T01:35:03;6.63;;;1.63;;
3189;SDS011;1606;51.946;10.558;2022-11-12T01:37:32;10.23;;;1.67;;
3189;SDS011;1606;51.946;10.558;2022-11-12T01:39:59;6.70;;;1.60;;
3189;SDS011;1606;51.946;10.558;2022-11-12T01:42:28;7.47;;;1.77;;
3189;SDS011;1606;51.946;10.558;2022-11-12T01:44:58;8.20;;;1.60;;
3189;SDS011;1606;51.946;10.558;2022-11-12T01:47:27;8.63;;;1.60;;
3189;SDS011;1606;51.946;10.558;2022-11-12T01:49:57;6.20;;;1.50;;
3189;SDS011;1606;51.946;10.558;2022-11-12T01:52:40;6.93;;;1.80;;
3189;SDS011;1606;51.946;10.558;2022-11-12T01:55:13;5.83;;;1.50;;
3189;SDS011;1606;51.946;10.558;2022-11-12T01:57:44;7.00;;;2.07;;
3189;SDS011;1606;51.946;10.558;2022-11-12T02:00:17;5.80;;;1.63;;
3189;SDS011;1606;51.946;10.558;2022-11-12T02:02:48;9.30;;;1.83;;
3189;SDS011;1606;51.946;10.558;2022-11-12T02:05:19;5.80;;;1.70;;
3189;SDS011;1606;51.946;10.558;2022-11-12T02:07:48;5.20;;;1.40;;
3189;SDS011;1606;51.946;10.558;2022-11-12T02:10:17;8.00;;;1.97;;
3189;SDS011;1606;51.946;10.558;2022-11-12T02:12:45;7.20;;;2.17;;
3189;SDS011;1606;51.946;10.558;2022-11-12T02:15:33;7.37;;;1.60;;
3189;SDS011;1606;51.946;10.558;2022-11-12T02:18:02;7.50;;;1.73;;
3189;SDS011;1606;51.946;10.558;2022-11-12T02:20:31;5.53;;;1.50;;
3189;SDS011;1606;51.946;10.558;2022-11-12T02:23:01;6.30;;;1.80;;
3189;SDS011;1606;51.946;10.558;2022-11-12T02:25:29;10.47;;;1.80;;
3189;SDS011;1606;51.946;10.558;2022-11-12T02:27:58;8.13;;;1.50;;
3189;SDS011;1606;51.946;10.558;2022-11-12T02:30:30;5.80;;;1.80;;
3189;SDS011;1606;51.946;10.558;2022-11-12T02:32:59;6.73;;;1.90;;
3189;SDS011;1606;51.946;10.558;2022-11-12T02:35:28;6.22;;;1.80;;
3189;SDS011;1606;51.946;10.558;2022-11-12T02:37:57;6.23;;;1.97;;
3189;SDS011;1606;51.946;10.558;2022-11-12T02:40:26;5.47;;;2.00;;
3189;SDS011;1606;51.946;10.558;2022-11-12T02:42:54;6.47;;;1.60;;
3189;SDS011;1606;51.946;10.558;2022-11-12T02:45:22;6.80;;;1.60;;
3189;SDS011;1606;51.946;10.558;2022-11-12T02:47:49;7.77;;;1.60;;
3189;SDS011;1606;51.946;10.558;2022-11-12T02:50:17;5.20;;;1.53;;
3189;SDS011;1606;51.946;10.558;2022-11-12T02:52:45;7.00;;;1.50;;
3189;SDS011;1606;51.946;10.558;2022-11-12T02:55:13;5.73;;;1.50;;
3189;SDS011;1606;51.946;10.558;2022-11-12T02:57:42;7.43;;;1.80;;
3189;SDS011;1606;51.946;10.558;2022-11-12T03:00:11;5.53;;;1.83;;
3189;SDS011;1606;51.946;10.558;2022-11-12T03:02:39;6.40;;;1.67;;
3189;SDS011;1606;51.946;10.558;2022-11-12T03:05:08;7.07;;;1.90;;
3189;SDS011;1606;51.946;10.558;2022-11-12T03:07:37;5.93;;;1.53;;
3189;SDS011;1606;51.946;10.558;2022-11-12T03:10:05;5.83;;;1.80;;
3189;SDS011;1606;51.946;10.558;2022-11-12T03:12:33;7.60;;;1.60;;
3189;SDS011;1606;51.946;10.558;2022-11-12T03:15:03;6.13;;;1.57;;
3189;SDS011;1606;51.946;10.558;2022-11-12T03:17:33;5.70;;;1.70;;
3189;SDS011;1606;51.946;10.558;2022-11-12T03:20:01;6.50;;;2.10;;
3189;SDS011;1606;51.946;10.558;2022-11-12T03:22:29;7.50;;;1.93;;
3189;SDS011;1606;51.946;10.558;2022-11-12T03:24:56;5.20;;;1.43;;
3189;SDS011;1606;51.946;10.558;2022-11-12T03:27:24;6.50;;;1.70;;
3189;SDS011;1606;51.946;10.558;2022-11-12T03:29:52;6.27;;;1.73;;
3189;SDS011;1606;51.946;10.558;2022-11-12T03:32:21;9.53;;;2.13;;
3189;SDS011;1606;51.946;10.558;2022-11-12T03:34:49;6.30;;;2.00;;
3189;SDS011;1606;51.946;10.558;2022-11-12T03:37:20;5.97;;;1.40;;
3189;SDS011;1606;51.946;10.558;2022-11-12T03:39:48;8.20;;;1.80;;
3189;SDS011;1606;51.946;10.558;2022-11-12T03:42:16;7.20;;;2.00;;
3189;SDS011;1606;51.946;10.558;2022-11-12T03:44:44;6.00;;;1.77;;
3189;SDS011;1606;51.946;10.558;2022-11-12T03:47:12;5.57;;;1.57;;
3189;SDS011;1606;51.946;10.558;2022-11-12T03:49:41;6.47;;;1.90;;
3189;SDS011;1606;51.946;10.558;2022-11-12T03:52:09;5.93;;;1.60;;
3189;SDS011;1606;51.946;10.558;2022-11-12T03:54:36;6.60;;;1.80;;
3189;SDS011;1606;51.946;10.558;2022-11-12T03:57:04;6.50;;;1.80;;
3189;SDS011;1606;51.946;10.558;2022-11-12T03:59:32;6.53;;;2.17;;
3189;SDS011;1606;51.946;10.558;2022-11-12T04:02:00;11.40;;;2.63;;
3189;SDS011;1606;51.946;10.558;2022-11-12T04:04:28;6.30;;;1.80;;
3189;SDS011;1606;51.946;10.558;2022-11-12T04:07:17;6.80;;;3.00;;
3189;SDS011;1606;51.946;10.558;2022-11-12T04:10:02;5.60;;;1.77;;
3189;SDS011;1606;51.946;10.558;2022-11-12T04:12:30;5.87;;;1.80;;
3189;SDS011;1606;51.946;10.558;2022-11-12T04:15:16;6.90;;;2.50;;
3189;SDS011;1606;51.946;10.558;2022-11-12T04:17:43;7.07;;;1.97;;
3189;SDS011;1606;51.946;10.558;2022-11-12T04:20:29;6.10;;;1.30;;
3189;SDS011;1606;51.946;10.558;2022-11-12T04:23:27;5.93;;;1.60;;
3189;SDS011;1606;51.946;10.558;2022-11-12T04:25:55;5.63;;;1.67;;
3189;SDS011;1606;51.946;10.558;2022-11-12T04:28:41;6.87;;;2.00;;
3189;SDS011;1606;51.946;10.558;2022-11-12T04:31:29;6.30;;;1.70;;
3189;SDS011;1606;51.946;10.558;2022-11-12T04:33:56;6.30;;;1.60;;
3189;SDS011;1606;51.946;10.558;2022-11-12T04:36:44;5.83;;;1.70;;
3189;SDS011;1606;51.946;10.558;2022-11-12T04:39:13;5.83;;;1.67;;
3189;SDS011;1606;51.946;10.558;2022-11-12T04:41:41;5.20;;;1.30;;
3189;SDS011;1606;51.946;10.558;2022-11-12T04:44:26;5.37;;;1.43;;
3189;SDS011;1606;51.946;10.558;2022-11-12T04:47:11;8.00;;;2.40;;
3189;SDS011;1606;51.946;10.558;2022-11-12T04:49:39;6.07;;;1.93;;
3189;SDS011;1606;51.946;10.558;2022-11-12T04:52:07;6.17;;;1.87;;
3189;SDS011;1606;51.946;10.558;2022-11-12T04:54:37;6.77;;;1.80;;
3189;SDS011;1606;51.946;10.558;2022-11-12T04:57:05;5.30;;;1.30;;
3189;SDS011;1606;51.946;10.558;2022-11-12T04:59:32;6.13;;;1.90;;
3189;SDS011;1606;51.946;10.558;2022-11-12T05:02:00;10.70;;;1.60;;
3189;SDS011;1606;51.946;10.558;2022-11-12T05:04:28;6.90;;;1.70;;
3189;SDS011;1606;51.946;10.558;2022-11-12T05:06:56;6.77;;;1.63;;
3189;SDS011;1606;51.946;10.558;2022-11-12T05:09:26;7.50;;;2.07;;
3189;SDS011;1606;51.946;10.558;2022-11-12T05:11:56;5.90;;;2.00;;
3189;SDS011;1606;51.946;10.558;2022-11-12T05:14:24;6.23;;;1.43;;
3189;SDS011;1606;51.946;10.558;2022-11-12T05:16:52;6.90;;;2.10;;
3189;SDS011;1606;51.946;10.558;2022-11-12T05:19:20;11.33;;;2.00;;
3189;SDS011;1606;51.946;10.558;2022-11-12T05:21:47;6.00;;;2.00;;
3189;SDS011;1606;51.946;10.558;2022-11-12T05:24:47;8.47;;;1.77;;
3189;SDS011;1606;51.946;10.558;2022-11-12T05:27:17;7.30;;;1.97;;
3189;SDS011;1606;51.946;10.558;2022-11-12T05:29:46;5.83;;;1.40;;
3189;SDS011;1606;51.946;10.558;2022-11-12T05:32:14;5.80;;;1.70;;
3189;SDS011;1606;51.946;10.558;2022-11-12T05:34:43;6.70;;;1.80;;
3189;SDS011;1606;51.946;10.558;2022-11-12T05:37:11;5.67;;;1.80;;
3189;SDS011;1606;51.946;10.558;2022-11-12T05:39:40;5.43;;;1.67;;
3189;SDS011;1606;51.946;10.558;2022-11-12T05:42:08;6.17;;;1.60;;
3189;SDS011;1606;51.946;10.558;2022-11-12T05:44:40;9.07;;;2.10;;
3189;SDS011;1606;51.946;10.558;2022-11-12T05:47:08;5.60;;;1.90;;
3189;SDS011;1606;51.946;10.558;2022-11-12T05:49:36;7.17;;;1.90;;
3189;SDS011;1606;51.946;10.558;2022-11-12T05:52:04;7.30;;;1.97;;
3189;SDS011;1606;51.946;10.558;2022-11-12T05:54:31;6.00;;;1.70;;
3189;SDS011;1606;51.946;10.558;2022-11-12T05:56:59;7.97;;;2.77;;
3189;SDS011;1606;51.946;10.558;2022-11-12T05:59:27;7.00;;;1.93;;
3189;SDS011;1606;51.946;10.558;2022-11-12T06:01:56;7.40;;;1.90;;
3189;SDS011;1606;51.946;10.558;2022-11-12T06:04:24;6.60;;;1.90;;
3189;SDS011;1606;51.946;10.558;2022-11-12T06:06:53;6.50;;;2.20;;
3189;SDS011;1606;51.946;10.558;2022-11-12T06:09:20;5.60;;;1.90;;
3189;SDS011;1606;51.946;10.558;2022-11-12T06:11:48;7.60;;;2.37;;
3189;SDS011;1606;51.946;10.558;2022-11-12T06:14:16;7.27;;;1.90;;
3189;SDS011;1606;51.946;10.558;2022-11-12T06:16:44;7.83;;;1.97;;
3189;SDS011;1606;51.946;10.558;2022-11-12T06:19:13;5.93;;;1.90;;
3189;SDS011;1606;51.946;10.558;2022-11-12T06:21:41;6.07;;;1.50;;
3189;SDS011;1606;51.946;10.558;2022-11-12T06:24:09;6.50;;;1.80;;
3189;SDS011;1606;51.946;10.558;2022-11-12T06:26:37;6.03;;;1.60;;
3189;SDS011;1606;51.946;10.558;2022-11-12T06:29:05;5.40;;;1.53;;
3189;SDS011;1606;51.946;10.558;2022-11-12T06:31:32;5.50;;;1.40;;
3189;SDS011;1606;51.946;10.558;2022-11-12T06:34:00;6.83;;;2.07;;
3189;SDS011;1606;51.946;10.558;2022-11-12T06:36:29;6.47;;;1.83;;
3189;SDS011;1606;51.946;10.558;2022-11-12T06:38:57;7.53;;;2.13;;
3189;SDS011;1606;51.946;10.558;2022-11-12T06:41:25;7.10;;;2.23;;
3189;SDS011;1606;51.946;10.558;2022-11-12T06:43:53;6.47;;;1.80;;
3189;SDS011;1606;51.946;10.558;2022-11-12T06:46:21;7.40;;;2.50;;
3189;SDS011;1606;51.946;10.558;2022-11-12T06:48:48;6.70;;;1.60;;
3189;SDS011;1606;51.946;10.558;2022-11-12T06:51:17;6.10;;;1.80;;
3189;SDS011;1606;51.946;10.558;2022-11-12T06:53:47;6.90;;;1.47;;
3189;SDS011;1606;51.946;10.558;2022-11-12T06:56:16;5.50;;;1.50;;
3189;SDS011;1606;51.946;10.558;2022-11-12T06:58:44;5.93;;;1.70;;
3189;SDS011;1606;51.946;10.558;2022-11-12T07:01:13;7.37;;;1.70;;
3189;SDS011;1606;51.946;10.558;2022-11-12T07:03:43;6.30;;;2.37;;
3189;SDS011;1606;51.946;10.558;2022-11-12T07:06:11;7.40;;;1.80;;
3189;SDS011;1606;51.946;10.558;2022-11-12T07:08:40;7.17;;;1.93;;
3189;SDS011;1606;51.946;10.558;2022-11-12T07:11:09;6.60;;;1.77;;
3189;SDS011;1606;51.946;10.558;2022-11-12T07:13:37;7.30;;;1.60;;
3189;SDS011;1606;51.946;10.558;2022-11-12T07:16:06;10.80;;;1.83;;
3189;SDS011;1606;51.946;10.558;2022-11-12T07:18:34;5.93;;;1.50;;
3189;SDS011;1606;51.946;10.558;2022-11-12T07:21:03;9.90;;;1.87;;
3189;SDS011;1606;51.946;10.558;2022-11-12T07:23:33;6.27;;;1.73;;
3189;SDS011;1606;51.946;10.558;2022-11-12T07:26:03;6.17;;;2.07;;
3189;SDS011;1606;51.946;10.558;2022-11-12T07:28:33;5.97;;;1.70;;
3189;SDS011;1606;51.946;10.558;2022-11-12T07:31:02;6.13;;;1.47;;
3189;SDS011;1606;51.946;10.558;2022-11-12T07:33:32;6.03;;;1.93;;
3189;SDS011;1606;51.946;10.558;2022-11-12T07:36:01;5.80;;;1.60;;
3189;SDS011;1606;51.946;10.558;2022-11-12T07:38:30;5.80;;;1.77;;
3189;SDS011;1606;51.946;10.558;2022-11-12T07:40:59;5.60;;;1.60;;
3189;SDS011;1606;51.946;10.558;2022-11-12T07:43:28;6.50;;;1.50;;
3189;SDS011;1606;51.946;10.558;2022-11-12T07:45:58;8.20;;;2.00;;
3189;SDS011;1606;51.946;10.558;2022-11-12T07:48:35;5.63;;;1.43;;
3189;SDS011;1606;51.946;10.558;2022-11-12T07:51:04;7.47;;;1.63;;
3189;SDS011;1606;51.946;10.558;2022-11-12T07:53:33;6.93;;;1.50;;
3189;SDS011;1606;51.946;10.558;2022-11-12T07:56:01;8.00;;;1.90;;
3189;SDS011;1606;51.946;10.558;2022-11-12T07:58:31;5.47;;;1.53;;
3189;SDS011;1606;51.946;10.558;2022-11-12T08:01:07;8.90;;;2.03;;
3189;SDS011;1606;51.946;10.558;2022-11-12T08:03:36;6.57;;;1.90;;
3189;SDS011;1606;51.946;10.558;2022-11-12T08:06:04;11.03;;;2.07;;
3189;SDS011;1606;51.946;10.558;2022-11-12T08:08:33;5.80;;;1.80;;
3189;SDS011;1606;51.946;10.558;2022-11-12T08:11:00;5.53;;;1.70;;
3189;SDS011;1606;51.946;10.558;2022-11-12T08:13:28;6.80;;;1.97;;
3189;SDS011;1606;51.946;10.558;2022-11-12T08:15:56;5.77;;;1.50;;
3189;SDS011;1606;51.946;10.558;2022-11-12T08:18:25;6.93;;;1.50;;
3189;SDS011;1606;51.946;10.558;2022-11-12T08:20:57;7.17;;;1.53;;
3189;SDS011;1606;51.946;10.558;2022-11-12T08:23:27;6.43;;;1.77;;
3189;SDS011;1606;51.946;10.558;2022-11-12T08:25:59;5.73;;;1.53;;
3189;SDS011;1606;51.946;10.558;2022-11-12T08:28:27;7.80;;;2.00;;
3189;SDS011;1606;51.946;10.558;2022-11-12T08:30:56;5.80;;;1.50;;
3189;SDS011;1606;51.946;10.558;2022-11-12T08:33:26;5.93;;;1.70;;
3189;SDS011;1606;51.946;10.558;2022-11-12T08:35:53;5.97;;;2.00;;
3189;SDS011;1606;51.946;10.558;2022-11-12T08:38:21;5.50;;;1.37;;
3189;SDS011;1606;51.946;10.558;2022-11-12T08:40:50;6.03;;;1.73;;
3189;SDS011;1606;51.946;10.558;2022-11-12T08:43:17;5.63;;;1.60;;
3189;SDS011;1606;51.946;10.558;2022-11-12T08:45:45;6.50;;;1.57;;
3189;SDS011;1606;51.946;10.558;2022-11-12T08:48:15;5.90;;;1.90;;
3189;SDS011;1606;51.946;10.558;2022-11-12T08:50:44;6.20;;;1.80;;
3189;SDS011;1606;51.946;10.558;2022-11-12T08:53:12;7.60;;;2.20;;
3189;SDS011;1606;51.946;10.558;2022-11-12T08:55:40;7.87;;;2.10;;
3189;SDS011;1606;51.946;10.558;2022-11-12T08:58:08;7.40;;;2.10;;
3189;SDS011;1606;51.946;10.558;2022-11-12T09:00:37;6.07;;;1.63;;
3189;SDS011;1606;51.946;10.558;2022-11-12T09:03:06;7.47;;;2.17;;
3189;SDS011;1606;51.946;10.558;2022-11-12T09:05:39;6.33;;;2.27;;
3189;SDS011;1606;51.946;10.558;2022-11-12T09:08:09;6.87;;;2.17;;
3189;SDS011;1606;51.946;10.558;2022-11-12T09:10:38;6.40;;;2.23;;
3189;SDS011;1606;51.946;10.558;2022-11-12T09:13:06;6.30;;;2.10;;
3189;SDS011;1606;51.946;10.558;2022-11-12T09:15:34;6.47;;;2.30;;
3189;SDS011;1606;51.946;10.558;2022-11-12T09:18:04;6.80;;;2.67;;
3189;SDS011;1606;51.946;10.558;2022-11-12T09:20:33;7.60;;;3.10;;
3189;SDS011;1606;51.946;10.558;2022-11-12T09:23:02;7.07;;;2.90;;
3189;SDS011;1606;51.946;10.558;2022-11-12T09:25:33;8.83;;;3.73;;
3189;SDS011;1606;51.946;10.558;2022-11-12T09:28:05;7.47;;;3.37;;
3189;SDS011;1606;51.946;10.558;2022-11-12T09:30:34;9.37;;;3.90;;
3189;SDS011;1606;51.946;10.558;2022-11-12T09:33:03;11.57;;;4.50;;
3189;SDS011;1606;51.946;10.558;2022-11-12T09:35:31;9.33;;;3.90;;
3189;SDS011;1606;51.946;10.558;2022-11-12T09:37:58;9.47;;;3.53;;
3189;SDS011;1606;51.946;10.558;2022-11-12T09:40:30;8.10;;;3.90;;
3189;SDS011;1606;51.946;10.558;2022-11-12T09:43:08;11.33;;;3.63;;
3189;SDS011;1606;51.946;10.558;2022-11-12T09:45:43;9.67;;;3.97;;
3189;SDS011;1606;51.946;10.558;2022-11-12T09:48:34;8.83;;;3.80;;
3189;SDS011;1606;51.946;10.558;2022-11-12T09:51:09;9.47;;;4.43;;
3189;SDS011;1606;51.946;10.558;2022-11-12T09:53:42;8.70;;;4.00;;
3189;SDS011;1606;51.946;10.558;2022-11-12T09:56:15;9.70;;;4.07;;
3189;SDS011;1606;51.946;10.558;2022-11-12T09:58:46;9.23;;;4.10;;
3189;SDS011;1606;51.946;10.558;2022-11-12T10:01:15;8.40;;;3.90;;
3189;SDS011;1606;51.946;10.558;2022-11-12T10:03:50;7.20;;;3.60;;
3189;SDS011;1606;51.946;10.558;2022-11-12T10:06:28;6.47;;;2.60;;
3189;SDS011;1606;51.946;10.558;2022-11-12T10:09:03;8.17;;;2.87;;
3189;SDS011;1606;51.946;10.558;2022-11-12T10:11:40;11.00;;;3.87;;
3189;SDS011;1606;51.946;10.558;2022-11-12T10:14:51;10.20;;;3.57;;
3189;SDS011;1606;51.946;10.558;2022-11-12T10:17:50;8.90;;;3.17;;
3189;SDS011;1606;51.946;10.558;2022-11-12T10:20:24;8.70;;;2.90;;
3189;SDS011;1606;51.946;10.558;2022-11-12T10:23:13;7.73;;;3.40;;
3189;SDS011;1606;51.946;10.558;2022-11-12T10:25:44;9.20;;;3.30;;
3189;SDS011;1606;51.946;10.558;2022-11-12T10:31:06;9.10;;;3.10;;
3189;SDS011;1606;51.946;10.558;2022-11-12T10:33:38;7.93;;;3.30;;
3189;SDS011;1606;51.946;10.558;2022-11-12T10:36:23;7.17;;;3.03;;
3189;SDS011;1606;51.946;10.558;2022-11-12T10:38:56;10.80;;;3.20;;
3189;SDS011;1606;51.946;10.558;2022-11-12T10:41:24;7.00;;;3.00;;
3189;SDS011;1606;51.946;10.558;2022-11-12T10:43:58;9.93;;;3.60;;
3189;SDS011;1606;51.946;10.558;2022-11-12T10:46:27;8.73;;;3.10;;
3189;SDS011;1606;51.946;10.558;2022-11-12T10:48:57;6.50;;;2.60;;
3189;SDS011;1606;51.946;10.558;2022-11-12T10:51:28;6.10;;;2.00;;
3189;SDS011;1606;51.946;10.558;2022-11-12T10:53:58;8.53;;;2.50;;
3189;SDS011;1606;51.946;10.558;2022-11-12T10:56:44;6.20;;;1.70;;
3189;SDS011;1606;51.946;10.558;2022-11-12T10:59:22;5.60;;;1.73;;
3189;SDS011;1606;51.946;10.558;2022-11-12T11:01:54;7.37;;;2.43;;
3189;SDS011;1606;51.946;10.558;2022-11-12T11:04:27;6.60;;;2.00;;
3189;SDS011;1606;51.946;10.558;2022-11-12T11:06:57;7.33;;;2.53;;
3189;SDS011;1606;51.946;10.558;2022-11-12T11:09:26;6.03;;;2.13;;
3189;SDS011;1606;51.946;10.558;2022-11-12T11:11:54;6.50;;;2.37;;
3189;SDS011;1606;51.946;10.558;2022-11-12T11:14:24;6.43;;;2.10;;
3189;SDS011;1606;51.946;10.558;2022-11-12T11:16:55;8.63;;;3.93;;
3189;SDS011;1606;51.946;10.558;2022-11-12T11:19:27;8.10;;;2.90;;
3189;SDS011;1606;51.946;10.558;2022-11-12T11:22:02;7.47;;;2.80;;
3189;SDS011;1606;51.946;10.558;2022-11-12T11:24:38;6.80;;;2.43;;
3189;SDS011;1606;51.946;10.558;2022-11-12T11:27:21;8.30;;;2.90;;
3189;SDS011;1606;51.946;10.558;2022-11-12T11:30:00;9.87;;;2.97;;
3189;SDS011;1606;51.946;10.558;2022-11-12T11:32:42;8.50;;;3.27;;
3189;SDS011;1606;51.946;10.558;2022-11-12T11:35:38;9.20;;;3.50;;
3189;SDS011;1606;51.946;10.558;2022-11-12T11:38:24;7.93;;;3.47;;
3189;SDS011;1606;51.946;10.558;2022-11-12T11:41:04;8.67;;;3.27;;
3189;SDS011;1606;51.946;10.558;2022-11-12T11:43:47;8.60;;;2.93;;
3189;SDS011;1606;51.946;10.558;2022-11-12T11:49:23;7.07;;;2.70;;
3189;SDS011;1606;51.946;10.558;2022-11-12T11:52:24;7.50;;;2.63;;
3189;SDS011;1606;51.946;10.558;2022-11-12T11:55:13;9.27;;;2.87;;
3189;SDS011;1606;51.946;10.558;2022-11-12T11:57:53;8.30;;;2.60;;
3189;SDS011;1606;51.946;10.558;2022-11-12T12:00:27;11.67;;;3.23;;
3189;SDS011;1606;51.946;10.558;2022-11-12T12:03:19;9.03;;;2.73;;
3189;SDS011;1606;51.946;10.558;2022-11-12T12:06:03;5.90;;;2.20;;
3189;SDS011;1606;51.946;10.558;2022-11-12T12:08:46;6.27;;;2.53;;
3189;SDS011;1606;51.946;10.558;2022-11-12T12:11:30;7.30;;;2.67;;
3189;SDS011;1606;51.946;10.558;2022-11-12T12:14:06;7.50;;;2.87;;
3189;SDS011;1606;51.946;10.558;2022-11-12T12:16:47;6.73;;;2.90;;
3189;SDS011;1606;51.946;10.558;2022-11-12T12:19:36;8.80;;;3.13;;
3189;SDS011;1606;51.946;10.558;2022-11-12T12:22:13;8.90;;;3.50;;
3189;SDS011;1606;51.946;10.558;2022-11-12T12:24:46;6.23;;;2.23;;
3189;SDS011;1606;51.946;10.558;2022-11-12T12:27:17;6.13;;;2.43;;
3189;SDS011;1606;51.946;10.558;2022-11-12T12:29:49;7.20;;;2.40;;
3189;SDS011;1606;51.946;10.558;2022-11-12T12:32:21;6.13;;;1.97;;
3189;SDS011;1606;51.946;10.558;2022-11-12T12:34:57;12.03;;;2.00;;
3189;SDS011;1606;51.946;10.558;2022-11-12T12:37:32;6.00;;;1.73;;
3189;SDS011;1606;51.946;10.558;2022-11-12T12:40:07;7.37;;;2.33;;
3189;SDS011;1606;51.946;10.558;2022-11-12T12:42:44;7.10;;;1.97;;
3189;SDS011;1606;51.946;10.558;2022-11-12T12:45:24;8.23;;;2.53;;
3189;SDS011;1606;51.946;10.558;2022-11-12T12:48:01;8.30;;;2.67;;
3189;SDS011;1606;51.946;10.558;2022-11-12T12:50:35;6.10;;;2.13;;
3189;SDS011;1606;51.946;10.558;2022-11-12T12:53:14;7.83;;;1.93;;
3189;SDS011;1606;51.946;10.558;2022-11-12T12:55:44;6.20;;;1.97;;
3189;SDS011;1606;51.946;10.558;2022-11-12T12:58:22;6.93;;;2.50;;
3189;SDS011;1606;51.946;10.558;2022-11-12T13:00:54;6.23;;;2.47;;
3189;SDS011;1606;51.946;10.558;2022-11-12T13:03:43;6.77;;;2.63;;
3189;SDS011;1606;51.946;10.558;2022-11-12T13:06:25;6.87;;;2.03;;
3189;SDS011;1606;51.946;10.558;2022-11-12T13:08:57;5.40;;;1.70;;
3189;SDS011;1606;51.946;10.558;2022-11-12T13:11:50;5.70;;;2.17;;
3189;SDS011;1606;51.946;10.558;2022-11-12T13:17:41;7.03;;;2.67;;
3189;SDS011;1606;51.946;10.558;2022-11-12T13:26:45;6.40;;;2.27;;
3189;SDS011;1606;51.946;10.558;2022-11-12T13:32:30;6.23;;;1.93;;
3189;SDS011;1606;51.946;10.558;2022-11-12T13:38:03;7.07;;;1.90;;
3189;SDS011;1606;51.946;10.558;2022-11-12T13:40:41;7.37;;;2.70;;
3189;SDS011;1606;51.946;10.558;2022-11-12T13:43:19;6.00;;;2.23;;
3189;SDS011;1606;51.946;10.558;2022-11-12T13:46:05;8.80;;;2.20;;
3189;SDS011;1606;51.946;10.558;2022-11-12T13:48:55;8.67;;;2.80;;
3189;SDS011;1606;51.946;10.558;2022-11-12T13:51:30;7.77;;;2.37;;
3189;SDS011;1606;51.946;10.558;2022-11-12T13:59:55;8.00;;;2.90;;
3189;SDS011;1606;51.946;10.558;2022-11-12T14:02:35;7.30;;;2.43;;
3189;SDS011;1606;51.946;10.558;2022-11-12T14:05:13;12.80;;;2.73;;
3189;SDS011;1606;51.946;10.558;2022-11-12T14:07:44;9.03;;;3.87;;
3189;SDS011;1606;51.946;10.558;2022-11-12T14:10:24;8.33;;;4.27;;
3189;SDS011;1606;51.946;10.558;2022-11-12T14:13:05;10.00;;;4.20;;
3189;SDS011;1606;51.946;10.558;2022-11-12T14:15:53;11.73;;;4.43;;
3189;SDS011;1606;51.946;10.558;2022-11-12T14:18:44;8.43;;;3.33;;
3189;SDS011;1606;51.946;10.558;2022-11-12T14:21:24;8.23;;;2.93;;
3189;SDS011;1606;51.946;10.558;2022-11-12T14:23:52;8.23;;;2.30;;
3189;SDS011;1606;51.946;10.558;2022-11-12T14:29:14;8.20;;;2.90;;
3189;SDS011;1606;51.946;10.558;2022-11-12T14:31:44;7.17;;;2.50;;
3189;SDS011;1606;51.946;10.558;2022-11-12T14:34:19;7.30;;;2.30;;
3189;SDS011;1606;51.946;10.558;2022-11-12T14:36:47;9.50;;;2.73;;
3189;SDS011;1606;51.946;10.558;2022-11-12T14:39:17;7.27;;;2.40;;
3189;SDS011;1606;51.946;10.558;2022-11-12T14:41:45;10.73;;;2.50;;
3189;SDS011;1606;51.946;10.558;2022-11-12T14:44:15;7.77;;;2.27;;
3189;SDS011;1606;51.946;10.558;2022-11-12T14:46:48;8.10;;;2.20;;
3189;SDS011;1606;51.946;10.558;2022-11-12T14:49:20;8.80;;;2.90;;
3189;SDS011;1606;51.946;10.558;2022-11-12T14:51:54;7.33;;;2.40;;
3189;SDS011;1606;51.946;10.558;2022-11-12T14:54:30;7.40;;;3.27;;
3189;SDS011;1606;51.946;10.558;2022-11-12T14:57:01;10.70;;;3.10;;
3189;SDS011;1606;51.946;10.558;2022-11-12T14:59:30;6.13;;;1.90;;
3189;SDS011;1606;51.946;10.558;2022-11-12T15:02:05;7.13;;;2.30;;
3189;SDS011;1606;51.946;10.558;2022-11-12T15:04:57;7.90;;;2.57;;
3189;SDS011;1606;51.946;10.558;2022-11-12T15:07:27;6.33;;;2.20;;
3189;SDS011;1606;51.946;10.558;2022-11-12T15:09:57;8.00;;;2.03;;
3189;SDS011;1606;51.946;10.558;2022-11-12T15:12:25;8.40;;;2.20;;
3189;SDS011;1606;51.946;10.558;2022-11-12T15:15:02;7.40;;;2.00;;
3189;SDS011;1606;51.946;10.558;2022-11-12T15:17:36;7.53;;;1.97;;
3189;SDS011;1606;51.946;10.558;2022-11-12T15:20:05;6.97;;;2.17;;
3189;SDS011;1606;51.946;10.558;2022-11-12T15:22:39;6.30;;;2.03;;
3189;SDS011;1606;51.946;10.558;2022-11-12T15:25:11;6.10;;;1.93;;
3189;SDS011;1606;51.946;10.558;2022-11-12T15:27:46;6.90;;;2.30;;
3189;SDS011;1606;51.946;10.558;2022-11-12T15:30:17;7.57;;;2.30;;
3189;SDS011;1606;51.946;10.558;2022-11-12T15:32:50;6.97;;;2.17;;
3189;SDS011;1606;51.946;10.558;2022-11-12T15:35:35;7.17;;;2.70;;
3189;SDS011;1606;51.946;10.558;2022-11-12T15:38:05;6.43;;;2.00;;
3189;SDS011;1606;51.946;10.558;2022-11-12T15:40:41;6.90;;;1.83;;
3189;SDS011;1606;51.946;10.558;2022-11-12T15:43:12;7.20;;;2.33;;
3189;SDS011;1606;51.946;10.558;2022-11-12T15:45:42;5.90;;;1.53;;
3189;SDS011;1606;51.946;10.558;2022-11-12T15:48:16;6.10;;;1.97;;
3189;SDS011;1606;51.946;10.558;2022-11-12T15:50:44;6.67;;;2.50;;
3189;SDS011;1606;51.946;10.558;2022-11-12T15:53:12;6.67;;;1.97;;
3189;SDS011;1606;51.946;10.558;2022-11-12T15:55:40;7.93;;;2.33;;
3189;SDS011;1606;51.946;10.558;2022-11-12T15:58:11;6.67;;;1.73;;
3189;SDS011;1606;51.946;10.558;2022-11-12T16:00:42;7.60;;;3.03;;